Destinations Norwich International Airport

Norwich International Airport (EGSH / NWI)

Flights to Norwich International Airport

Flight number From ETE Dispatch
SPY-226 EHGG Groningen Airport Eelde 01:15

Flights from Norwich International Airport

Flight number To ETE Dispatch
SPY-227 EHGG Groningen Airport Eelde 01:15
About

Norwich International Airport facts

Norwich International Airport is located in Norwich at an elevation of 35.7 meters or 117 feet.

Currently, Speedy Airlines serves 2 flights to and from Norwich International Airport.

Detailed airport info

Route map

Weather

Current weather

METAR

METAR

Metar data retrieved Sunday, 21 July 2024 at 19:25 UTC

EGSH 211850Z 09005KT 050V120 9999 SCT031 18/12 Q1013
Wind Temperature
5 kt 18c